sensor_id;sensor_type;location;lat;lon;timestamp;temperature;humidity
23385;DHT22;11865;45.394;10.978;2023-02-28T00:00:35;5.70;89.90
23385;DHT22;11865;45.394;10.978;2023-02-28T00:03:03;5.80;89.70
23385;DHT22;11865;45.394;10.978;2023-02-28T00:05:30;5.80;89.90
23385;DHT22;11865;45.394;10.978;2023-02-28T00:07:57;5.70;89.80
23385;DHT22;11865;45.394;10.978;2023-02-28T00:10:27;5.70;90.00
23385;DHT22;11865;45.394;10.978;2023-02-28T00:12:56;5.70;89.90
23385;DHT22;11865;45.394;10.978;2023-02-28T00:15:26;5.70;90.00
23385;DHT22;11865;45.394;10.978;2023-02-28T00:17:53;5.70;90.00
23385;DHT22;11865;45.394;10.978;2023-02-28T00:20:20;5.70;90.00
23385;DHT22;11865;45.394;10.978;2023-02-28T00:22:49;5.70;90.00
23385;DHT22;11865;45.394;10.978;2023-02-28T00:25:21;5.70;90.50
23385;DHT22;11865;45.394;10.978;2023-02-28T00:27:49;5.70;89.50
23385;DHT22;11865;45.394;10.978;2023-02-28T00:30:20;5.80;89.10
23385;DHT22;11865;45.394;10.978;2023-02-28T00:32:48;5.70;89.00
23385;DHT22;11865;45.394;10.978;2023-02-28T00:35:15;5.80;88.40
23385;DHT22;11865;45.394;10.978;2023-02-28T00:37:43;5.70;88.40
23385;DHT22;11865;45.394;10.978;2023-02-28T00:40:10;5.70;88.60
23385;DHT22;11865;45.394;10.978;2023-02-28T00:42:39;5.70;88.90
23385;DHT22;11865;45.394;10.978;2023-02-28T00:45:07;5.70;88.90
23385;DHT22;11865;45.394;10.978;2023-02-28T00:47:37;5.70;88.70
23385;DHT22;11865;45.394;10.978;2023-02-28T00:50:05;5.60;88.80
23385;DHT22;11865;45.394;10.978;2023-02-28T00:52:32;5.70;88.60
23385;DHT22;11865;45.394;10.978;2023-02-28T00:54:59;5.60;88.80
23385;DHT22;11865;45.394;10.978;2023-02-28T00:57:27;5.60;88.30
23385;DHT22;11865;45.394;10.978;2023-02-28T00:59:54;5.60;88.70
23385;DHT22;11865;45.394;10.978;2023-02-28T01:02:22;5.60;89.00
23385;DHT22;11865;45.394;10.978;2023-02-28T01:04:52;5.60;89.00
23385;DHT22;11865;45.394;10.978;2023-02-28T01:07:19;5.60;89.00
23385;DHT22;11865;45.394;10.978;2023-02-28T01:09:46;5.50;89.20
23385;DHT22;11865;45.394;10.978;2023-02-28T01:12:13;5.50;89.10
23385;DHT22;11865;45.394;10.978;2023-02-28T01:14:41;5.50;89.20
23385;DHT22;11865;45.394;10.978;2023-02-28T01:17:08;5.50;89.30
23385;DHT22;11865;45.394;10.978;2023-02-28T01:19:35;5.40;89.60
23385;DHT22;11865;45.394;10.978;2023-02-28T01:22:04;5.40;90.00
23385;DHT22;11865;45.394;10.978;2023-02-28T01:24:32;5.40;89.90
23385;DHT22;11865;45.394;10.978;2023-02-28T01:27:00;5.30;90.10
23385;DHT22;11865;45.394;10.978;2023-02-28T01:29:27;5.30;90.00
23385;DHT22;11865;45.394;10.978;2023-02-28T01:31:54;5.30;90.10
23385;DHT22;11865;45.394;10.978;2023-02-28T01:34:22;5.30;90.10
23385;DHT22;11865;45.394;10.978;2023-02-28T01:36:50;5.30;90.00
23385;DHT22;11865;45.394;10.978;2023-02-28T01:39:18;5.30;90.00
23385;DHT22;11865;45.394;10.978;2023-02-28T01:41:45;5.30;90.10
23385;DHT22;11865;45.394;10.978;2023-02-28T01:46:59;5.40;90.00
23385;DHT22;11865;45.394;10.978;2023-02-28T01:49:26;5.30;90.00
23385;DHT22;11865;45.394;10.978;2023-02-28T01:51:54;5.40;90.00
23385;DHT22;11865;45.394;10.978;2023-02-28T01:56:51;5.40;90.10
23385;DHT22;11865;45.394;10.978;2023-02-28T01:59:21;5.40;90.10
23385;DHT22;11865;45.394;10.978;2023-02-28T02:01:50;5.40;90.10
23385;DHT22;11865;45.394;10.978;2023-02-28T02:04:18;5.40;90.10
23385;DHT22;11865;45.394;10.978;2023-02-28T02:06:47;5.40;90.10
23385;DHT22;11865;45.394;10.978;2023-02-28T02:09:15;5.40;90.00
23385;DHT22;11865;45.394;10.978;2023-02-28T02:11:42;5.40;90.10
23385;DHT22;11865;45.394;10.978;2023-02-28T02:14:31;5.40;89.60
23385;DHT22;11865;45.394;10.978;2023-02-28T02:24:55;5.50;90.00
23385;DHT22;11865;45.394;10.978;2023-02-28T02:37:48;5.50;90.00
23385;DHT22;11865;45.394;10.978;2023-02-28T02:40:20;5.50;89.90
23385;DHT22;11865;45.394;10.978;2023-02-28T02:42:50;5.50;89.80
23385;DHT22;11865;45.394;10.978;2023-02-28T02:45:31;5.50;89.90
23385;DHT22;11865;45.394;10.978;2023-02-28T02:48:03;5.50;90.00
23385;DHT22;11865;45.394;10.978;2023-02-28T02:50:39;5.50;90.00
23385;DHT22;11865;45.394;10.978;2023-02-28T02:53:08;5.50;89.60
23385;DHT22;11865;45.394;10.978;2023-02-28T02:55:38;5.50;90.00
23385;DHT22;11865;45.394;10.978;2023-02-28T02:58:08;5.50;89.80
23385;DHT22;11865;45.394;10.978;2023-02-28T03:00:38;5.60;89.30
23385;DHT22;11865;45.394;10.978;2023-02-28T03:03:06;5.50;89.50
23385;DHT22;11865;45.394;10.978;2023-02-28T03:05:39;5.60;89.10
23385;DHT22;11865;45.394;10.978;2023-02-28T03:08:08;5.60;88.90
23385;DHT22;11865;45.394;10.978;2023-02-28T03:10:37;5.60;89.20
23385;DHT22;11865;45.394;10.978;2023-02-28T03:13:17;5.60;89.00
23385;DHT22;11865;45.394;10.978;2023-02-28T03:21:38;5.60;88.60
23385;DHT22;11865;45.394;10.978;2023-02-28T03:24:08;5.60;88.60
23385;DHT22;11865;45.394;10.978;2023-02-28T03:26:42;5.60;88.90
23385;DHT22;11865;45.394;10.978;2023-02-28T03:29:22;5.50;88.90
23385;DHT22;11865;45.394;10.978;2023-02-28T03:31:53;5.50;89.30
23385;DHT22;11865;45.394;10.978;2023-02-28T03:34:26;5.40;89.30
23385;DHT22;11865;45.394;10.978;2023-02-28T03:36:57;5.40;89.20
23385;DHT22;11865;45.394;10.978;2023-02-28T03:42:23;5.40;89.80
23385;DHT22;11865;45.394;10.978;2023-02-28T03:44:56;5.30;90.30
23385;DHT22;11865;45.394;10.978;2023-02-28T03:47:26;5.10;90.40
23385;DHT22;11865;45.394;10.978;2023-02-28T03:52:27;5.00;90.90
23385;DHT22;11865;45.394;10.978;2023-02-28T03:54:56;4.90;91.00
23385;DHT22;11865;45.394;10.978;2023-02-28T03:59:59;4.80;91.40
23385;DHT22;11865;45.394;10.978;2023-02-28T04:02:27;4.80;91.40
23385;DHT22;11865;45.394;10.978;2023-02-28T04:04:55;4.80;91.50
23385;DHT22;11865;45.394;10.978;2023-02-28T04:07:22;4.80;91.50
23385;DHT22;11865;45.394;10.978;2023-02-28T04:09:49;4.80;91.50
23385;DHT22;11865;45.394;10.978;2023-02-28T04:12:16;4.70;91.70
23385;DHT22;11865;45.394;10.978;2023-02-28T04:14:43;4.70;91.80
23385;DHT22;11865;45.394;10.978;2023-02-28T04:17:11;4.80;91.80
23385;DHT22;11865;45.394;10.978;2023-02-28T04:19:38;4.70;91.80
23385;DHT22;11865;45.394;10.978;2023-02-28T04:22:05;4.70;91.70
23385;DHT22;11865;45.394;10.978;2023-02-28T04:24:32;4.70;92.00
23385;DHT22;11865;45.394;10.978;2023-02-28T04:26:59;4.70;91.80
23385;DHT22;11865;45.394;10.978;2023-02-28T04:29:30;4.80;92.30
23385;DHT22;11865;45.394;10.978;2023-02-28T04:31:59;4.70;91.70
23385;DHT22;11865;45.394;10.978;2023-02-28T04:34:28;4.70;91.90
23385;DHT22;11865;45.394;10.978;2023-02-28T04:36:56;4.60;91.90
23385;DHT22;11865;45.394;10.978;2023-02-28T04:39:39;4.50;92.00
23385;DHT22;11865;45.394;10.978;2023-02-28T04:42:06;4.60;91.90
23385;DHT22;11865;45.394;10.978;2023-02-28T04:44:34;4.70;91.70
23385;DHT22;11865;45.394;10.978;2023-02-28T04:47:01;4.70;91.50
23385;DHT22;11865;45.394;10.978;2023-02-28T04:49:28;4.70;91.40
23385;DHT22;11865;45.394;10.978;2023-02-28T04:51:55;4.80;91.50
23385;DHT22;11865;45.394;10.978;2023-02-28T04:54:22;4.80;91.50
23385;DHT22;11865;45.394;10.978;2023-02-28T04:56:50;4.80;91.50
23385;DHT22;11865;45.394;10.978;2023-02-28T04:59:17;4.80;91.40
23385;DHT22;11865;45.394;10.978;2023-02-28T05:01:48;4.80;91.50
23385;DHT22;11865;45.394;10.978;2023-02-28T05:04:16;4.90;91.30
23385;DHT22;11865;45.394;10.978;2023-02-28T05:06:43;4.90;91.40
23385;DHT22;11865;45.394;10.978;2023-02-28T05:09:11;4.90;91.90
23385;DHT22;11865;45.394;10.978;2023-02-28T05:11:41;4.90;91.60
23385;DHT22;11865;45.394;10.978;2023-02-28T05:14:12;4.90;91.60
23385;DHT22;11865;45.394;10.978;2023-02-28T05:16:39;4.90;91.50
23385;DHT22;11865;45.394;10.978;2023-02-28T05:19:06;5.00;91.20
23385;DHT22;11865;45.394;10.978;2023-02-28T05:21:34;5.00;91.40
23385;DHT22;11865;45.394;10.978;2023-02-28T05:24:06;5.00;91.00
23385;DHT22;11865;45.394;10.978;2023-02-28T05:26:35;5.10;91.10
23385;DHT22;11865;45.394;10.978;2023-02-28T05:29:02;5.10;91.10
23385;DHT22;11865;45.394;10.978;2023-02-28T05:31:29;5.10;90.90
23385;DHT22;11865;45.394;10.978;2023-02-28T05:33:57;5.10;90.80
23385;DHT22;11865;45.394;10.978;2023-02-28T05:36:24;5.20;90.70
23385;DHT22;11865;45.394;10.978;2023-02-28T05:38:52;5.20;90.70
23385;DHT22;11865;45.394;10.978;2023-02-28T05:41:19;5.30;90.50
23385;DHT22;11865;45.394;10.978;2023-02-28T05:43:47;5.30;90.50
23385;DHT22;11865;45.394;10.978;2023-02-28T05:46:14;5.30;90.30
23385;DHT22;11865;45.394;10.978;2023-02-28T05:48:42;5.30;90.40
23385;DHT22;11865;45.394;10.978;2023-02-28T05:51:10;5.30;90.30
23385;DHT22;11865;45.394;10.978;2023-02-28T05:53:37;5.20;90.30
23385;DHT22;11865;45.394;10.978;2023-02-28T05:56:04;5.20;90.50
23385;DHT22;11865;45.394;10.978;2023-02-28T05:58:31;5.10;90.60
23385;DHT22;11865;45.394;10.978;2023-02-28T06:00:59;5.20;90.40
23385;DHT22;11865;45.394;10.978;2023-02-28T06:03:26;5.30;90.30
23385;DHT22;11865;45.394;10.978;2023-02-28T06:05:54;5.20;90.40
23385;DHT22;11865;45.394;10.978;2023-02-28T06:08:21;5.20;90.40
23385;DHT22;11865;45.394;10.978;2023-02-28T06:10:48;5.30;90.50
23385;DHT22;11865;45.394;10.978;2023-02-28T06:13:16;5.30;90.40
23385;DHT22;11865;45.394;10.978;2023-02-28T06:15:43;5.40;90.20
23385;DHT22;11865;45.394;10.978;2023-02-28T06:18:10;5.40;90.20
23385;DHT22;11865;45.394;10.978;2023-02-28T06:20:37;5.50;90.20
23385;DHT22;11865;45.394;10.978;2023-02-28T06:23:05;5.50;90.20
23385;DHT22;11865;45.394;10.978;2023-02-28T06:25:32;5.50;90.20
23385;DHT22;11865;45.394;10.978;2023-02-28T06:27:59;5.50;90.20
23385;DHT22;11865;45.394;10.978;2023-02-28T06:30:26;5.50;90.40
23385;DHT22;11865;45.394;10.978;2023-02-28T06:32:56;5.60;90.40
23385;DHT22;11865;45.394;10.978;2023-02-28T06:35:24;5.60;90.40
23385;DHT22;11865;45.394;10.978;2023-02-28T06:37:51;5.60;90.50
23385;DHT22;11865;45.394;10.978;2023-02-28T06:40:18;5.70;90.40
23385;DHT22;11865;45.394;10.978;2023-02-28T06:42:46;5.70;90.40
23385;DHT22;11865;45.394;10.978;2023-02-28T06:45:13;5.70;90.30
23385;DHT22;11865;45.394;10.978;2023-02-28T06:47:40;5.70;90.10
23385;DHT22;11865;45.394;10.978;2023-02-28T06:50:11;5.80;91.40
23385;DHT22;11865;45.394;10.978;2023-02-28T06:52:38;5.80;90.20
23385;DHT22;11865;45.394;10.978;2023-02-28T06:55:06;5.90;90.10
23385;DHT22;11865;45.394;10.978;2023-02-28T06:57:34;6.10;89.90
23385;DHT22;11865;45.394;10.978;2023-02-28T07:00:03;6.60;88.10
23385;DHT22;11865;45.394;10.978;2023-02-28T07:02:30;7.10;86.90
23385;DHT22;11865;45.394;10.978;2023-02-28T07:04:58;7.40;84.60
23385;DHT22;11865;45.394;10.978;2023-02-28T07:07:26;7.00;85.70
23385;DHT22;11865;45.394;10.978;2023-02-28T07:09:53;6.60;87.30
23385;DHT22;11865;45.394;10.978;2023-02-28T07:12:20;6.50;87.90
23385;DHT22;11865;45.394;10.978;2023-02-28T07:14:47;6.40;88.30
23385;DHT22;11865;45.394;10.978;2023-02-28T07:17:15;6.50;87.90
23385;DHT22;11865;45.394;10.978;2023-02-28T07:19:42;6.40;88.00
23385;DHT22;11865;45.394;10.978;2023-02-28T07:22:09;6.50;88.50
23385;DHT22;11865;45.394;10.978;2023-02-28T07:24:36;6.30;87.80
23385;DHT22;11865;45.394;10.978;2023-02-28T07:27:05;6.30;88.10
23385;DHT22;11865;45.394;10.978;2023-02-28T07:29:32;6.30;88.70
23385;DHT22;11865;45.394;10.978;2023-02-28T07:31:59;6.40;88.00
23385;DHT22;11865;45.394;10.978;2023-02-28T07:34:26;6.50;88.00
23385;DHT22;11865;45.394;10.978;2023-02-28T07:36:54;6.60;88.00
23385;DHT22;11865;45.394;10.978;2023-02-28T07:39:21;6.60;87.30
23385;DHT22;11865;45.394;10.978;2023-02-28T07:41:49;6.70;87.30
23385;DHT22;11865;45.394;10.978;2023-02-28T07:44:16;6.90;86.90
23385;DHT22;11865;45.394;10.978;2023-02-28T07:46:43;6.80;86.20
23385;DHT22;11865;45.394;10.978;2023-02-28T07:49:10;7.00;86.60
23385;DHT22;11865;45.394;10.978;2023-02-28T07:51:37;7.00;85.80
23385;DHT22;11865;45.394;10.978;2023-02-28T07:54:05;7.20;86.90
23385;DHT22;11865;45.394;10.978;2023-02-28T07:56:32;7.30;86.20
23385;DHT22;11865;45.394;10.978;2023-02-28T07:58:59;7.20;85.70
23385;DHT22;11865;45.394;10.978;2023-02-28T08:01:26;7.20;85.80
23385;DHT22;11865;45.394;10.978;2023-02-28T08:03:54;7.10;84.90
23385;DHT22;11865;45.394;10.978;2023-02-28T08:06:24;6.90;84.80
23385;DHT22;11865;45.394;10.978;2023-02-28T08:08:52;7.20;85.70
23385;DHT22;11865;45.394;10.978;2023-02-28T08:11:19;7.40;85.60
23385;DHT22;11865;45.394;10.978;2023-02-28T08:13:47;7.30;85.40
23385;DHT22;11865;45.394;10.978;2023-02-28T08:16:14;7.20;85.30
23385;DHT22;11865;45.394;10.978;2023-02-28T08:18:49;7.20;85.20
23385;DHT22;11865;45.394;10.978;2023-02-28T08:21:17;7.40;85.10
23385;DHT22;11865;45.394;10.978;2023-02-28T08:23:48;7.40;85.00
23385;DHT22;11865;45.394;10.978;2023-02-28T08:26:16;7.60;85.30
23385;DHT22;11865;45.394;10.978;2023-02-28T08:28:44;7.70;84.70
23385;DHT22;11865;45.394;10.978;2023-02-28T08:31:12;7.30;83.50
23385;DHT22;11865;45.394;10.978;2023-02-28T08:33:40;7.50;84.40
23385;DHT22;11865;45.394;10.978;2023-02-28T08:36:08;7.40;83.30
23385;DHT22;11865;45.394;10.978;2023-02-28T08:38:36;7.50;84.20
23385;DHT22;11865;45.394;10.978;2023-02-28T08:41:05;7.60;84.60
23385;DHT22;11865;45.394;10.978;2023-02-28T08:43:34;7.60;83.60
23385;DHT22;11865;45.394;10.978;2023-02-28T08:46:01;7.90;85.90
23385;DHT22;11865;45.394;10.978;2023-02-28T08:48:30;7.60;83.70
23385;DHT22;11865;45.394;10.978;2023-02-28T08:50:58;7.70;84.30
23385;DHT22;11865;45.394;10.978;2023-02-28T08:53:33;8.00;85.00
23385;DHT22;11865;45.394;10.978;2023-02-28T08:56:03;8.00;82.70
23385;DHT22;11865;45.394;10.978;2023-02-28T08:58:31;8.10;82.90
23385;DHT22;11865;45.394;10.978;2023-02-28T09:00:59;7.90;82.50
23385;DHT22;11865;45.394;10.978;2023-02-28T09:03:27;8.20;83.90
23385;DHT22;11865;45.394;10.978;2023-02-28T09:08:22;8.40;82.70
23385;DHT22;11865;45.394;10.978;2023-02-28T09:10:49;8.70;82.80
23385;DHT22;11865;45.394;10.978;2023-02-28T09:13:16;8.40;81.20
23385;DHT22;11865;45.394;10.978;2023-02-28T09:15:44;8.60;82.40
23385;DHT22;11865;45.394;10.978;2023-02-28T09:18:11;8.60;82.80
23385;DHT22;11865;45.394;10.978;2023-02-28T09:20:39;8.90;82.90
23385;DHT22;11865;45.394;10.978;2023-02-28T09:23:07;8.70;80.00
23385;DHT22;11865;45.394;10.978;2023-02-28T09:25:35;8.80;80.60
23385;DHT22;11865;45.394;10.978;2023-02-28T09:28:02;8.40;80.60
23385;DHT22;11865;45.394;10.978;2023-02-28T09:30:30;8.40;79.20
23385;DHT22;11865;45.394;10.978;2023-02-28T09:32:57;8.40;79.70
23385;DHT22;11865;45.394;10.978;2023-02-28T09:35:24;8.70;81.10
23385;DHT22;11865;45.394;10.978;2023-02-28T09:37:53;8.70;79.70
23385;DHT22;11865;45.394;10.978;2023-02-28T09:40:21;8.70;79.80
23385;DHT22;11865;45.394;10.978;2023-02-28T09:42:51;8.70;79.10
23385;DHT22;11865;45.394;10.978;2023-02-28T09:47:48;8.80;80.50
23385;DHT22;11865;45.394;10.978;2023-02-28T09:52:47;9.00;79.50
23385;DHT22;11865;45.394;10.978;2023-02-28T09:55:20;8.80;78.30
23385;DHT22;11865;45.394;10.978;2023-02-28T09:57:49;9.10;79.20
23385;DHT22;11865;45.394;10.978;2023-02-28T10:00:18;8.90;78.00
23385;DHT22;11865;45.394;10.978;2023-02-28T10:08:14;9.00;78.50
23385;DHT22;11865;45.394;10.978;2023-02-28T10:10:43;9.00;78.10
23385;DHT22;11865;45.394;10.978;2023-02-28T10:13:15;9.00;78.40
23385;DHT22;11865;45.394;10.978;2023-02-28T10:15:44;9.10;77.80
23385;DHT22;11865;45.394;10.978;2023-02-28T10:18:14;9.20;77.30
23385;DHT22;11865;45.394;10.978;2023-02-28T10:20:43;9.00;77.50
23385;DHT22;11865;45.394;10.978;2023-02-28T10:25:38;9.20;78.20
23385;DHT22;11865;45.394;10.978;2023-02-28T10:28:13;9.00;78.90
23385;DHT22;11865;45.394;10.978;2023-02-28T10:30:47;8.90;77.80
23385;DHT22;11865;45.394;10.978;2023-02-28T10:35:57;9.20;77.70
23385;DHT22;11865;45.394;10.978;2023-02-28T10:38:27;9.20;77.60
23385;DHT22;11865;45.394;10.978;2023-02-28T10:43:31;9.10;79.30
23385;DHT22;11865;45.394;10.978;2023-02-28T10:45:59;9.30;79.10
23385;DHT22;11865;45.394;10.978;2023-02-28T10:48:30;9.50;79.20
23385;DHT22;11865;45.394;10.978;2023-02-28T10:50:57;9.50;78.90
23385;DHT22;11865;45.394;10.978;2023-02-28T10:56:28;9.40;80.30
23385;DHT22;11865;45.394;10.978;2023-02-28T11:01:27;9.70;78.80
23385;DHT22;11865;45.394;10.978;2023-02-28T11:04:01;9.60;78.00
23385;DHT22;11865;45.394;10.978;2023-02-28T11:06:33;9.80;77.90
23385;DHT22;11865;45.394;10.978;2023-02-28T11:09:04;9.60;78.00
23385;DHT22;11865;45.394;10.978;2023-02-28T11:11:41;9.60;76.20
23385;DHT22;11865;45.394;10.978;2023-02-28T11:14:17;9.60;76.40
23385;DHT22;11865;45.394;10.978;2023-02-28T11:16:46;9.60;76.20
23385;DHT22;11865;45.394;10.978;2023-02-28T11:19:18;10.20;78.40
23385;DHT22;11865;45.394;10.978;2023-02-28T11:21:52;9.90;75.10
23385;DHT22;11865;45.394;10.978;2023-02-28T11:24:54;10.00;77.30
23385;DHT22;11865;45.394;10.978;2023-02-28T11:29:53;10.30;76.70
23385;DHT22;11865;45.394;10.978;2023-02-28T11:32:24;10.00;76.10
23385;DHT22;11865;45.394;10.978;2023-02-28T11:37:28;10.00;77.60
23385;DHT22;11865;45.394;10.978;2023-02-28T11:39:56;10.00;77.00
23385;DHT22;11865;45.394;10.978;2023-02-28T11:47:44;9.80;74.60
23385;DHT22;11865;45.394;10.978;2023-02-28T11:50:22;10.10;75.70
23385;DHT22;11865;45.394;10.978;2023-02-28T11:52:55;10.20;76.40
23385;DHT22;11865;45.394;10.978;2023-02-28T11:55:24;10.40;75.90
23385;DHT22;11865;45.394;10.978;2023-02-28T12:21:17;10.60;77.70
23385;DHT22;11865;45.394;10.978;2023-02-28T12:24:28;10.50;77.10
23385;DHT22;11865;45.394;10.978;2023-02-28T12:26:40;10.70;76.70
23385;DHT22;11865;45.394;10.978;2023-02-28T12:29:30;10.80;77.40
23385;DHT22;11865;45.394;10.978;2023-02-28T12:31:59;10.60;77.20
23385;DHT22;11865;45.394;10.978;2023-02-28T12:34:31;10.60;77.40
23385;DHT22;11865;45.394;10.978;2023-02-28T12:37:00;10.50;78.10
23385;DHT22;11865;45.394;10.978;2023-02-28T12:39:29;10.60;78.20
23385;DHT22;11865;45.394;10.978;2023-02-28T12:42:19;10.50;78.10
23385;DHT22;11865;45.394;10.978;2023-02-28T12:44:51;10.80;79.20
23385;DHT22;11865;45.394;10.978;2023-02-28T12:47:19;10.60;78.40
23385;DHT22;11865;45.394;10.978;2023-02-28T12:50:03;10.70;77.80
23385;DHT22;11865;45.394;10.978;2023-02-28T13:00:35;10.40;77.40
23385;DHT22;11865;45.394;10.978;2023-02-28T13:10:49;11.10;78.10
23385;DHT22;11865;45.394;10.978;2023-02-28T13:13:22;11.00;77.30
23385;DHT22;11865;45.394;10.978;2023-02-28T13:18:28;10.90;76.70
23385;DHT22;11865;45.394;10.978;2023-02-28T13:20:55;10.70;76.50
23385;DHT22;11865;45.394;10.978;2023-02-28T13:26:05;11.00;76.60
23385;DHT22;11865;45.394;10.978;2023-02-28T13:31:18;11.10;77.70
23385;DHT22;11865;45.394;10.978;2023-02-28T13:38:48;11.20;77.90
23385;DHT22;11865;45.394;10.978;2023-02-28T13:46:34;11.10;78.30
23385;DHT22;11865;45.394;10.978;2023-02-28T13:51:51;10.70;78.50
23385;DHT22;11865;45.394;10.978;2023-02-28T14:07:06;11.20;76.60
23385;DHT22;11865;45.394;10.978;2023-02-28T14:09:35;11.20;77.70
23385;DHT22;11865;45.394;10.978;2023-02-28T14:17:19;11.20;79.10
23385;DHT22;11865;45.394;10.978;2023-02-28T14:19:46;11.10;79.00
23385;DHT22;11865;45.394;10.978;2023-02-28T14:30:24;10.90;79.00
23385;DHT22;11865;45.394;10.978;2023-02-28T14:33:01;11.10;79.20
23385;DHT22;11865;45.394;10.978;2023-02-28T14:38:06;10.90;79.90
23385;DHT22;11865;45.394;10.978;2023-02-28T14:40:39;10.90;79.10
23385;DHT22;11865;45.394;10.978;2023-02-28T14:43:18;10.90;79.60
23385;DHT22;11865;45.394;10.978;2023-02-28T14:45:48;10.80;79.60
23385;DHT22;11865;45.394;10.978;2023-02-28T14:48:16;10.80;79.40
23385;DHT22;11865;45.394;10.978;2023-02-28T14:50:48;11.00;79.70
23385;DHT22;11865;45.394;10.978;2023-02-28T14:53:17;11.00;79.30
23385;DHT22;11865;45.394;10.978;2023-02-28T14:55:46;10.90;79.20
23385;DHT22;11865;45.394;10.978;2023-02-28T15:00:54;10.90;79.30
23385;DHT22;11865;45.394;10.978;2023-02-28T15:03:28;11.10;80.00
23385;DHT22;11865;45.394;10.978;2023-02-28T15:05:58;10.90;79.50
23385;DHT22;11865;45.394;10.978;2023-02-28T15:08:26;10.80;79.60
23385;DHT22;11865;45.394;10.978;2023-02-28T15:10:57;11.00;80.60
23385;DHT22;11865;45.394;10.978;2023-02-28T15:13:26;11.00;80.30
23385;DHT22;11865;45.394;10.978;2023-02-28T15:18:36;11.00;81.10
23385;DHT22;11865;45.394;10.978;2023-02-28T15:21:06;10.80;80.40
23385;DHT22;11865;45.394;10.978;2023-02-28T15:23:35;10.90;80.10
23385;DHT22;11865;45.394;10.978;2023-02-28T15:26:03;11.00;80.20
23385;DHT22;11865;45.394;10.978;2023-02-28T15:28:31;11.00;80.80
23385;DHT22;11865;45.394;10.978;2023-02-28T15:30:59;10.90;80.20
23385;DHT22;11865;45.394;10.978;2023-02-28T15:33:28;10.80;80.30
23385;DHT22;11865;45.394;10.978;2023-02-28T15:38:34;11.00;82.90
23385;DHT22;11865;45.394;10.978;2023-02-28T15:41:02;10.90;83.50
23385;DHT22;11865;45.394;10.978;2023-02-28T15:43:35;10.80;84.10
23385;DHT22;11865;45.394;10.978;2023-02-28T15:46:10;10.70;83.00
23385;DHT22;11865;45.394;10.978;2023-02-28T15:53:48;10.70;83.10
23385;DHT22;11865;45.394;10.978;2023-02-28T15:56:24;10.60;82.70
23385;DHT22;11865;45.394;10.978;2023-02-28T15:58:55;10.60;82.20
23385;DHT22;11865;45.394;10.978;2023-02-28T16:01:27;10.60;85.70
23385;DHT22;11865;45.394;10.978;2023-02-28T16:03:59;10.60;85.80
23385;DHT22;11865;45.394;10.978;2023-02-28T16:06:35;10.70;83.80
23385;DHT22;11865;45.394;10.978;2023-02-28T16:09:03;10.60;82.80
23385;DHT22;11865;45.394;10.978;2023-02-28T16:11:37;10.60;83.90
23385;DHT22;11865;45.394;10.978;2023-02-28T16:14:05;10.30;82.70
23385;DHT22;11865;45.394;10.978;2023-02-28T16:16:32;10.30;83.50
23385;DHT22;11865;45.394;10.978;2023-02-28T16:19:00;10.20;83.80
23385;DHT22;11865;45.394;10.978;2023-02-28T16:21:27;10.20;83.30
23385;DHT22;11865;45.394;10.978;2023-02-28T16:23:55;10.20;83.50
23385;DHT22;11865;45.394;10.978;2023-02-28T16:26:23;10.30;84.10
23385;DHT22;11865;45.394;10.978;2023-02-28T16:28:51;10.30;84.60
23385;DHT22;11865;45.394;10.978;2023-02-28T16:31:18;10.20;83.50
23385;DHT22;11865;45.394;10.978;2023-02-28T16:33:46;10.20;84.10
23385;DHT22;11865;45.394;10.978;2023-02-28T16:36:14;10.10;84.30
23385;DHT22;11865;45.394;10.978;2023-02-28T16:38:41;10.00;84.10
23385;DHT22;11865;45.394;10.978;2023-02-28T16:41:11;10.00;84.40
23385;DHT22;11865;45.394;10.978;2023-02-28T16:43:43;9.90;84.50
23385;DHT22;11865;45.394;10.978;2023-02-28T16:46:11;9.90;85.20
23385;DHT22;11865;45.394;10.978;2023-02-28T16:48:39;9.90;86.40
23385;DHT22;11865;45.394;10.978;2023-02-28T16:51:13;9.80;86.20
23385;DHT22;11865;45.394;10.978;2023-02-28T16:53:41;9.80;85.90
23385;DHT22;11865;45.394;10.978;2023-02-28T16:56:24;9.70;85.80
23385;DHT22;11865;45.394;10.978;2023-02-28T16:58:51;9.70;86.10
23385;DHT22;11865;45.394;10.978;2023-02-28T17:01:22;9.60;86.20
23385;DHT22;11865;45.394;10.978;2023-02-28T17:03:50;9.50;87.20
23385;DHT22;11865;45.394;10.978;2023-02-28T17:06:22;9.50;86.90
23385;DHT22;11865;45.394;10.978;2023-02-28T17:08:50;9.50;88.00
23385;DHT22;11865;45.394;10.978;2023-02-28T17:11:17;9.50;89.00
23385;DHT22;11865;45.394;10.978;2023-02-28T17:13:45;9.50;88.70
23385;DHT22;11865;45.394;10.978;2023-02-28T17:18:57;9.40;90.50
23385;DHT22;11865;45.394;10.978;2023-02-28T17:21:25;9.30;90.90
23385;DHT22;11865;45.394;10.978;2023-02-28T17:23:52;9.20;91.50
23385;DHT22;11865;45.394;10.978;2023-02-28T17:26:20;9.20;91.70
23385;DHT22;11865;45.394;10.978;2023-02-28T17:28:48;9.10;92.10
23385;DHT22;11865;45.394;10.978;2023-02-28T17:31:16;9.00;92.40
23385;DHT22;11865;45.394;10.978;2023-02-28T17:33:43;8.90;92.60
23385;DHT22;11865;45.394;10.978;2023-02-28T17:36:15;8.90;92.80
23385;DHT22;11865;45.394;10.978;2023-02-28T17:38:42;8.80;93.10
23385;DHT22;11865;45.394;10.978;2023-02-28T17:41:10;8.80;93.30
23385;DHT22;11865;45.394;10.978;2023-02-28T17:43:38;8.60;93.60
23385;DHT22;11865;45.394;10.978;2023-02-28T17:46:06;8.30;93.80
23385;DHT22;11865;45.394;10.978;2023-02-28T17:48:33;8.20;94.50
23385;DHT22;11865;45.394;10.978;2023-02-28T17:51:00;8.00;94.80
23385;DHT22;11865;45.394;10.978;2023-02-28T17:53:27;7.90;94.90
23385;DHT22;11865;45.394;10.978;2023-02-28T17:55:55;7.80;95.10
23385;DHT22;11865;45.394;10.978;2023-02-28T17:58:22;7.70;96.10
23385;DHT22;11865;45.394;10.978;2023-02-28T18:00:49;7.50;95.80
23385;DHT22;11865;45.394;10.978;2023-02-28T18:03:20;7.50;95.80
23385;DHT22;11865;45.394;10.978;2023-02-28T18:05:48;7.30;96.20
23385;DHT22;11865;45.394;10.978;2023-02-28T18:08:16;7.20;96.80
23385;DHT22;11865;45.394;10.978;2023-02-28T18:10:43;7.10;96.90
23385;DHT22;11865;45.394;10.978;2023-02-28T18:13:10;7.20;96.90
23385;DHT22;11865;45.394;10.978;2023-02-28T18:15:39;7.20;96.70
23385;DHT22;11865;45.394;10.978;2023-02-28T18:18:06;7.40;96.70
23385;DHT22;11865;45.394;10.978;2023-02-28T18:20:34;7.40;96.80
23385;DHT22;11865;45.394;10.978;2023-02-28T18:23:02;7.30;96.80
23385;DHT22;11865;45.394;10.978;2023-02-28T18:25:29;7.30;96.90
23385;DHT22;11865;45.394;10.978;2023-02-28T18:27:56;7.20;97.00
23385;DHT22;11865;45.394;10.978;2023-02-28T18:30:28;6.90;97.00
23385;DHT22;11865;45.394;10.978;2023-02-28T18:32:58;6.80;97.70
23385;DHT22;11865;45.394;10.978;2023-02-28T18:35:26;6.60;98.20
23385;DHT22;11865;45.394;10.978;2023-02-28T18:40:36;6.20;98.90